sensor_id;sensor_type;location;lat;lon;timestamp;temperature;humidity
70421;SHT31;57848;51.938;15.520;2022-07-22T00:01:07;22.00;77.35
70421;SHT31;57848;51.938;15.520;2022-07-22T00:03:32;21.96;76.88
70421;SHT31;57848;51.938;15.520;2022-07-22T00:05:58;22.03;74.10
70421;SHT31;57848;51.938;15.520;2022-07-22T00:08:23;22.13;74.13
70421;SHT31;57848;51.938;15.520;2022-07-22T00:10:48;22.03;75.62
70421;SHT31;57848;51.938;15.520;2022-07-22T00:13:13;21.99;75.25
70421;SHT31;57848;51.938;15.520;2022-07-22T00:15:39;21.97;76.36
70421;SHT31;57848;51.938;15.520;2022-07-22T00:18:04;21.89;76.00
70421;SHT31;57848;51.938;15.520;2022-07-22T00:20:30;21.82;76.58
70421;SHT31;57848;51.938;15.520;2022-07-22T00:22:55;21.86;75.85
70421;SHT31;57848;51.938;15.520;2022-07-22T00:25:20;21.81;74.97
70421;SHT31;57848;51.938;15.520;2022-07-22T00:27:46;21.78;75.20
70421;SHT31;57848;51.938;15.520;2022-07-22T00:30:12;21.83;75.31
70421;SHT31;57848;51.938;15.520;2022-07-22T00:32:37;21.86;75.98
70421;SHT31;57848;51.938;15.520;2022-07-22T00:35:03;21.79;75.56
70421;SHT31;57848;51.938;15.520;2022-07-22T00:37:29;21.82;75.53
70421;SHT31;57848;51.938;15.520;2022-07-22T00:39:54;21.76;75.58
70421;SHT31;57848;51.938;15.520;2022-07-22T00:42:20;21.78;75.50
70421;SHT31;57848;51.938;15.520;2022-07-22T00:44:45;21.65;76.30
70421;SHT31;57848;51.938;15.520;2022-07-22T00:47:11;21.61;76.30
70421;SHT31;57848;51.938;15.520;2022-07-22T00:49:37;21.54;76.77
70421;SHT31;57848;51.938;15.520;2022-07-22T00:52:02;21.44;76.01
70421;SHT31;57848;51.938;15.520;2022-07-22T00:54:29;21.44;76.40
70421;SHT31;57848;51.938;15.520;2022-07-22T00:56:55;21.41;76.18
70421;SHT31;57848;51.938;15.520;2022-07-22T00:59:20;21.34;77.07
70421;SHT31;57848;51.938;15.520;2022-07-22T01:01:46;21.38;76.73
70421;SHT31;57848;51.938;15.520;2022-07-22T01:04:12;21.44;76.63
70421;SHT31;57848;51.938;15.520;2022-07-22T01:06:37;21.39;75.89
70421;SHT31;57848;51.938;15.520;2022-07-22T01:09:02;21.38;75.98
70421;SHT31;57848;51.938;15.520;2022-07-22T01:11:28;21.35;76.09
70421;SHT31;57848;51.938;15.520;2022-07-22T01:13:54;21.32;76.36
70421;SHT31;57848;51.938;15.520;2022-07-22T01:16:20;21.27;76.39
70421;SHT31;57848;51.938;15.520;2022-07-22T01:18:46;21.34;76.41
70421;SHT31;57848;51.938;15.520;2022-07-22T01:21:12;21.34;76.68
70421;SHT31;57848;51.938;15.520;2022-07-22T01:23:39;21.28;76.57
70421;SHT31;57848;51.938;15.520;2022-07-22T01:26:05;21.27;76.69
70421;SHT31;57848;51.938;15.520;2022-07-22T01:28:32;21.30;76.73
70421;SHT31;57848;51.938;15.520;2022-07-22T01:30:58;21.24;76.44
70421;SHT31;57848;51.938;15.520;2022-07-22T01:33:24;21.14;76.98
70421;SHT31;57848;51.938;15.520;2022-07-22T01:35:50;21.11;77.25
70421;SHT31;57848;51.938;15.520;2022-07-22T01:38:16;21.08;77.34
70421;SHT31;57848;51.938;15.520;2022-07-22T01:40:43;21.11;77.64
70421;SHT31;57848;51.938;15.520;2022-07-22T01:43:09;21.07;77.40
70421;SHT31;57848;51.938;15.520;2022-07-22T01:45:35;21.07;77.74
70421;SHT31;57848;51.938;15.520;2022-07-22T01:48:01;21.04;78.27
70421;SHT31;57848;51.938;15.520;2022-07-22T01:50:26;20.97;78.19
70421;SHT31;57848;51.938;15.520;2022-07-22T01:52:52;20.98;77.90
70421;SHT31;57848;51.938;15.520;2022-07-22T01:55:18;21.01;77.80
70421;SHT31;57848;51.938;15.520;2022-07-22T01:57:44;21.03;77.90
70421;SHT31;57848;51.938;15.520;2022-07-22T02:00:16;21.03;78.06
70421;SHT31;57848;51.938;15.520;2022-07-22T02:02:43;21.05;77.99
70421;SHT31;57848;51.938;15.520;2022-07-22T02:05:09;21.00;78.27
70421;SHT31;57848;51.938;15.520;2022-07-22T02:07:35;20.98;78.58
70421;SHT31;57848;51.938;15.520;2022-07-22T02:10:04;20.91;78.47
70421;SHT31;57848;51.938;15.520;2022-07-22T02:12:31;20.88;78.62
70421;SHT31;57848;51.938;15.520;2022-07-22T02:14:57;20.87;78.52
70421;SHT31;57848;51.938;15.520;2022-07-22T02:17:22;20.81;78.54
70421;SHT31;57848;51.938;15.520;2022-07-22T02:19:48;20.79;78.78
70421;SHT31;57848;51.938;15.520;2022-07-22T02:22:14;20.77;78.57
70421;SHT31;57848;51.938;15.520;2022-07-22T02:24:39;20.69;78.97
70421;SHT31;57848;51.938;15.520;2022-07-22T02:27:05;20.63;79.12
70421;SHT31;57848;51.938;15.520;2022-07-22T02:29:31;20.57;79.36
70421;SHT31;57848;51.938;15.520;2022-07-22T02:31:58;20.57;79.27
70421;SHT31;57848;51.938;15.520;2022-07-22T02:34:23;20.56;79.48
70421;SHT31;57848;51.938;15.520;2022-07-22T02:36:49;20.47;79.49
70421;SHT31;57848;51.938;15.520;2022-07-22T02:39:15;20.42;79.72
70421;SHT31;57848;51.938;15.520;2022-07-22T02:41:40;20.43;79.37
70421;SHT31;57848;51.938;15.520;2022-07-22T02:44:06;20.30;79.65
70421;SHT31;57848;51.938;15.520;2022-07-22T02:46:31;20.22;80.15
70421;SHT31;57848;51.938;15.520;2022-07-22T02:49:07;20.18;80.49
70421;SHT31;57848;51.938;15.520;2022-07-22T02:51:32;20.16;80.34
70421;SHT31;57848;51.938;15.520;2022-07-22T02:53:58;20.21;80.14
70421;SHT31;57848;51.938;15.520;2022-07-22T02:56:23;20.32;80.09
70421;SHT31;57848;51.938;15.520;2022-07-22T02:58:49;20.22;80.20
70421;SHT31;57848;51.938;15.520;2022-07-22T03:01:18;20.21;80.11
70421;SHT31;57848;51.938;15.520;2022-07-22T03:03:50;20.35;79.69
70421;SHT31;57848;51.938;15.520;2022-07-22T03:06:15;20.32;79.77
70421;SHT31;57848;51.938;15.520;2022-07-22T03:08:47;20.30;79.85
70421;SHT31;57848;51.938;15.520;2022-07-22T03:11:13;20.30;80.02
70421;SHT31;57848;51.938;15.520;2022-07-22T03:13:39;20.32;79.99
70421;SHT31;57848;51.938;15.520;2022-07-22T03:16:04;20.29;80.13
70421;SHT31;57848;51.938;15.520;2022-07-22T03:18:30;20.26;80.21
70421;SHT31;57848;51.938;15.520;2022-07-22T03:20:55;20.25;80.18
70421;SHT31;57848;51.938;15.520;2022-07-22T03:23:21;20.29;80.08
70421;SHT31;57848;51.938;15.520;2022-07-22T03:25:47;20.29;80.01
70421;SHT31;57848;51.938;15.520;2022-07-22T03:28:12;20.36;80.07
70421;SHT31;57848;51.938;15.520;2022-07-22T03:30:38;20.29;80.17
70421;SHT31;57848;51.938;15.520;2022-07-22T03:33:03;20.35;80.26
70421;SHT31;57848;51.938;15.520;2022-07-22T03:35:32;20.32;80.56
70421;SHT31;57848;51.938;15.520;2022-07-22T03:37:58;20.32;80.57
70421;SHT31;57848;51.938;15.520;2022-07-22T03:40:26;20.36;80.37
70421;SHT31;57848;51.938;15.520;2022-07-22T03:42:52;20.35;80.45
70421;SHT31;57848;51.938;15.520;2022-07-22T03:45:17;20.45;80.04
70421;SHT31;57848;51.938;15.520;2022-07-22T03:47:43;20.52;79.39
70421;SHT31;57848;51.938;15.520;2022-07-22T03:50:08;20.49;79.59
70421;SHT31;57848;51.938;15.520;2022-07-22T03:52:34;20.47;79.48
70421;SHT31;57848;51.938;15.520;2022-07-22T03:55:02;20.46;79.79
70421;SHT31;57848;51.938;15.520;2022-07-22T03:57:27;20.53;79.58
70421;SHT31;57848;51.938;15.520;2022-07-22T04:00:01;20.47;79.93
70421;SHT31;57848;51.938;15.520;2022-07-22T04:02:27;20.47;80.03
70421;SHT31;57848;51.938;15.520;2022-07-22T04:04:53;20.47;80.21
70421;SHT31;57848;51.938;15.520;2022-07-22T04:07:19;20.43;80.27
70421;SHT31;57848;51.938;15.520;2022-07-22T04:09:44;20.43;80.50
70421;SHT31;57848;51.938;15.520;2022-07-22T04:12:09;20.49;80.45
70421;SHT31;57848;51.938;15.520;2022-07-22T04:14:49;20.49;80.56
70421;SHT31;57848;51.938;15.520;2022-07-22T04:17:14;20.53;80.15
70421;SHT31;57848;51.938;15.520;2022-07-22T04:19:40;20.55;80.37
70421;SHT31;57848;51.938;15.520;2022-07-22T04:22:16;20.57;80.15
70421;SHT31;57848;51.938;15.520;2022-07-22T04:24:42;20.62;80.26
70421;SHT31;57848;51.938;15.520;2022-07-22T04:27:07;20.60;80.37
70421;SHT31;57848;51.938;15.520;2022-07-22T04:29:35;20.64;80.21
70421;SHT31;57848;51.938;15.520;2022-07-22T04:32:00;20.66;80.37
70421;SHT31;57848;51.938;15.520;2022-07-22T04:34:25;20.63;80.82
70421;SHT31;57848;51.938;15.520;2022-07-22T04:36:51;20.70;80.62
70421;SHT31;57848;51.938;15.520;2022-07-22T04:39:17;20.80;80.46
70421;SHT31;57848;51.938;15.520;2022-07-22T04:41:49;20.72;79.62
70421;SHT31;57848;51.938;15.520;2022-07-22T04:44:16;20.69;79.54
70421;SHT31;57848;51.938;15.520;2022-07-22T04:46:42;20.84;77.63
70421;SHT31;57848;51.938;15.520;2022-07-22T04:49:07;20.80;78.10
70421;SHT31;57848;51.938;15.520;2022-07-22T04:51:33;20.80;76.86
70421;SHT31;57848;51.938;15.520;2022-07-22T04:54:03;20.76;76.76
70421;SHT31;57848;51.938;15.520;2022-07-22T04:56:28;20.77;76.63
70421;SHT31;57848;51.938;15.520;2022-07-22T04:58:54;20.72;76.60
70421;SHT31;57848;51.938;15.520;2022-07-22T05:01:22;20.69;76.48
70421;SHT31;57848;51.938;15.520;2022-07-22T05:03:49;20.73;76.24
70421;SHT31;57848;51.938;15.520;2022-07-22T05:06:14;20.70;76.16
70421;SHT31;57848;51.938;15.520;2022-07-22T05:08:42;20.69;76.04
70421;SHT31;57848;51.938;15.520;2022-07-22T05:11:08;20.73;75.48
70421;SHT31;57848;51.938;15.520;2022-07-22T05:13:34;20.70;75.57
70421;SHT31;57848;51.938;15.520;2022-07-22T05:16:04;20.66;75.70
70421;SHT31;57848;51.938;15.520;2022-07-22T05:18:31;20.60;75.33
70421;SHT31;57848;51.938;15.520;2022-07-22T05:20:57;20.60;75.72
70421;SHT31;57848;51.938;15.520;2022-07-22T05:23:22;20.63;75.57
70421;SHT31;57848;51.938;15.520;2022-07-22T05:25:48;20.70;75.41
70421;SHT31;57848;51.938;15.520;2022-07-22T05:28:14;20.69;75.61
70421;SHT31;57848;51.938;15.520;2022-07-22T05:30:42;20.72;75.16
70421;SHT31;57848;51.938;15.520;2022-07-22T05:33:07;20.69;75.48
70421;SHT31;57848;51.938;15.520;2022-07-22T05:35:56;20.72;75.38
70421;SHT31;57848;51.938;15.520;2022-07-22T05:38:24;20.84;74.98
70421;SHT31;57848;51.938;15.520;2022-07-22T05:40:49;20.84;74.67
70421;SHT31;57848;51.938;15.520;2022-07-22T05:43:15;20.87;74.52
70421;SHT31;57848;51.938;15.520;2022-07-22T05:45:40;20.93;73.98
70421;SHT31;57848;51.938;15.520;2022-07-22T05:48:05;20.98;74.38
70421;SHT31;57848;51.938;15.520;2022-07-22T05:50:32;21.05;73.73
70421;SHT31;57848;51.938;15.520;2022-07-22T05:52:58;21.07;73.44
70421;SHT31;57848;51.938;15.520;2022-07-22T05:55:23;21.15;73.47
70421;SHT31;57848;51.938;15.520;2022-07-22T05:57:51;21.21;73.39
70421;SHT31;57848;51.938;15.520;2022-07-22T06:00:17;21.30;73.33
70421;SHT31;57848;51.938;15.520;2022-07-22T06:02:43;21.44;72.99
70421;SHT31;57848;51.938;15.520;2022-07-22T06:05:13;21.42;72.46
70421;SHT31;57848;51.938;15.520;2022-07-22T06:07:39;21.49;72.48
70421;SHT31;57848;51.938;15.520;2022-07-22T06:10:07;21.52;72.22
70421;SHT31;57848;51.938;15.520;2022-07-22T06:12:33;21.59;72.39
70421;SHT31;57848;51.938;15.520;2022-07-22T06:14:58;21.66;71.53
70421;SHT31;57848;51.938;15.520;2022-07-22T06:17:24;21.75;71.26
70421;SHT31;57848;51.938;15.520;2022-07-22T06:19:50;21.76;71.37
70421;SHT31;57848;51.938;15.520;2022-07-22T06:22:16;21.90;70.25
70421;SHT31;57848;51.938;15.520;2022-07-22T06:24:45;21.96;69.91
70421;SHT31;57848;51.938;15.520;2022-07-22T06:27:10;21.90;69.30
70421;SHT31;57848;51.938;15.520;2022-07-22T06:29:36;21.97;69.17
70421;SHT31;57848;51.938;15.520;2022-07-22T06:32:01;21.94;69.43
70421;SHT31;57848;51.938;15.520;2022-07-22T06:34:27;22.03;69.02
70421;SHT31;57848;51.938;15.520;2022-07-22T06:36:58;22.06;68.61
70421;SHT31;57848;51.938;15.520;2022-07-22T06:39:23;22.04;69.02
70421;SHT31;57848;51.938;15.520;2022-07-22T06:42:07;22.12;68.94
70421;SHT31;57848;51.938;15.520;2022-07-22T06:44:51;22.27;68.30
70421;SHT31;57848;51.938;15.520;2022-07-22T06:47:27;22.37;68.01
70421;SHT31;57848;51.938;15.520;2022-07-22T06:49:52;22.41;67.86
70421;SHT31;57848;51.938;15.520;2022-07-22T06:52:18;22.44;67.66
70421;SHT31;57848;51.938;15.520;2022-07-22T06:54:43;22.54;67.99
70421;SHT31;57848;51.938;15.520;2022-07-22T06:57:15;22.57;67.57
70421;SHT31;57848;51.938;15.520;2022-07-22T06:59:40;22.61;68.02
70421;SHT31;57848;51.938;15.520;2022-07-22T07:02:08;22.68;67.12
70421;SHT31;57848;51.938;15.520;2022-07-22T07:04:33;22.72;66.08
70421;SHT31;57848;51.938;15.520;2022-07-22T07:07:00;22.81;65.91
70421;SHT31;57848;51.938;15.520;2022-07-22T07:09:32;22.81;65.60
70421;SHT31;57848;51.938;15.520;2022-07-22T07:12:19;22.81;66.24
70421;SHT31;57848;51.938;15.520;2022-07-22T07:15:04;22.98;65.76
70421;SHT31;57848;51.938;15.520;2022-07-22T07:17:29;23.12;65.48
70421;SHT31;57848;51.938;15.520;2022-07-22T07:19:55;23.16;65.21
70421;SHT31;57848;51.938;15.520;2022-07-22T07:22:20;23.23;65.12
70421;SHT31;57848;51.938;15.520;2022-07-22T07:24:45;23.34;64.63
70421;SHT31;57848;51.938;15.520;2022-07-22T07:27:11;23.29;64.42
70421;SHT31;57848;51.938;15.520;2022-07-22T07:29:37;23.33;64.48
70421;SHT31;57848;51.938;15.520;2022-07-22T07:32:03;23.46;64.36
70421;SHT31;57848;51.938;15.520;2022-07-22T07:34:28;23.57;63.20
70421;SHT31;57848;51.938;15.520;2022-07-22T07:36:54;23.60;62.96
70421;SHT31;57848;51.938;15.520;2022-07-22T07:39:20;23.63;63.22
70421;SHT31;57848;51.938;15.520;2022-07-22T07:41:45;23.73;62.67
70421;SHT31;57848;51.938;15.520;2022-07-22T07:44:13;23.69;62.62
70421;SHT31;57848;51.938;15.520;2022-07-22T07:46:39;23.70;62.66
70421;SHT31;57848;51.938;15.520;2022-07-22T07:49:05;23.69;62.01
70421;SHT31;57848;51.938;15.520;2022-07-22T07:51:31;23.70;62.25
70421;SHT31;57848;51.938;15.520;2022-07-22T07:53:56;23.78;62.03
70421;SHT31;57848;51.938;15.520;2022-07-22T07:56:22;23.96;61.80
70421;SHT31;57848;51.938;15.520;2022-07-22T07:58:47;23.97;61.40
70421;SHT31;57848;51.938;15.520;2022-07-22T08:01:13;24.02;61.34
70421;SHT31;57848;51.938;15.520;2022-07-22T08:03:38;24.17;60.95
70421;SHT31;57848;51.938;15.520;2022-07-22T08:06:05;24.21;59.48
70421;SHT31;57848;51.938;15.520;2022-07-22T08:08:30;24.32;59.70
70421;SHT31;57848;51.938;15.520;2022-07-22T08:11:03;24.39;59.37
70421;SHT31;57848;51.938;15.520;2022-07-22T08:13:31;24.35;57.78
70421;SHT31;57848;51.938;15.520;2022-07-22T08:16:01;24.28;59.09
70421;SHT31;57848;51.938;15.520;2022-07-22T08:18:27;24.29;59.38
70421;SHT31;57848;51.938;15.520;2022-07-22T08:20:53;24.39;59.79
70421;SHT31;57848;51.938;15.520;2022-07-22T08:23:22;24.38;59.52
70421;SHT31;57848;51.938;15.520;2022-07-22T08:25:47;24.55;59.57
70421;SHT31;57848;51.938;15.520;2022-07-22T08:28:13;24.66;58.88
70421;SHT31;57848;51.938;15.520;2022-07-22T08:30:39;24.70;58.97
70421;SHT31;57848;51.938;15.520;2022-07-22T08:33:05;24.77;58.30
70421;SHT31;57848;51.938;15.520;2022-07-22T08:35:31;24.86;58.07
70421;SHT31;57848;51.938;15.520;2022-07-22T08:37:57;25.02;58.29
70421;SHT31;57848;51.938;15.520;2022-07-22T08:40:24;25.09;56.80
70421;SHT31;57848;51.938;15.520;2022-07-22T08:42:50;25.06;56.95
70421;SHT31;57848;51.938;15.520;2022-07-22T08:45:17;25.10;56.85
70421;SHT31;57848;51.938;15.520;2022-07-22T08:47:45;25.27;57.03
70421;SHT31;57848;51.938;15.520;2022-07-22T08:50:18;25.48;56.76
70421;SHT31;57848;51.938;15.520;2022-07-22T08:52:57;25.47;56.55
70421;SHT31;57848;51.938;15.520;2022-07-22T08:55:23;25.51;56.25
70421;SHT31;57848;51.938;15.520;2022-07-22T08:57:49;25.67;56.48
70421;SHT31;57848;51.938;15.520;2022-07-22T09:00:18;25.82;55.05
70421;SHT31;57848;51.938;15.520;2022-07-22T09:02:44;25.93;55.02
70421;SHT31;57848;51.938;15.520;2022-07-22T09:05:14;25.96;54.79
70421;SHT31;57848;51.938;15.520;2022-07-22T09:07:42;26.02;54.62
70421;SHT31;57848;51.938;15.520;2022-07-22T09:10:22;26.17;54.34
70421;SHT31;57848;51.938;15.520;2022-07-22T09:13:07;26.17;54.40
70421;SHT31;57848;51.938;15.520;2022-07-22T09:15:47;26.26;54.05
70421;SHT31;57848;51.938;15.520;2022-07-22T09:18:51;26.10;54.87
70421;SHT31;57848;51.938;15.520;2022-07-22T09:21:29;25.84;54.83
70421;SHT31;57848;51.938;15.520;2022-07-22T09:24:07;25.79;55.16
70421;SHT31;57848;51.938;15.520;2022-07-22T09:26:41;25.88;55.20
70421;SHT31;57848;51.938;15.520;2022-07-22T09:29:26;26.03;54.64
70421;SHT31;57848;51.938;15.520;2022-07-22T09:32:13;26.00;54.07
70421;SHT31;57848;51.938;15.520;2022-07-22T09:35:04;25.92;53.37
70421;SHT31;57848;51.938;15.520;2022-07-22T09:37:38;26.02;53.67
70421;SHT31;57848;51.938;15.520;2022-07-22T09:40:17;26.13;53.04
70421;SHT31;57848;51.938;15.520;2022-07-22T09:42:44;26.13;53.72
70421;SHT31;57848;51.938;15.520;2022-07-22T09:45:10;26.03;53.25
70421;SHT31;57848;51.938;15.520;2022-07-22T09:47:43;26.19;53.42
70421;SHT31;57848;51.938;15.520;2022-07-22T09:50:33;26.53;52.61
70421;SHT31;57848;51.938;15.520;2022-07-22T09:53:14;26.61;52.38
70421;SHT31;57848;51.938;15.520;2022-07-22T09:55:46;26.56;52.50
70421;SHT31;57848;51.938;15.520;2022-07-22T09:58:11;26.57;51.78
70421;SHT31;57848;51.938;15.520;2022-07-22T10:00:38;26.71;51.81
70421;SHT31;57848;51.938;15.520;2022-07-22T10:03:06;26.92;51.45
70421;SHT31;57848;51.938;15.520;2022-07-22T10:05:36;27.12;50.64
70421;SHT31;57848;51.938;15.520;2022-07-22T10:08:05;27.26;50.34
70421;SHT31;57848;51.938;15.520;2022-07-22T10:10:34;27.26;50.29
70421;SHT31;57848;51.938;15.520;2022-07-22T10:13:01;27.29;49.93
70421;SHT31;57848;51.938;15.520;2022-07-22T10:15:28;27.11;50.26
70421;SHT31;57848;51.938;15.520;2022-07-22T10:17:56;27.36;49.66
70421;SHT31;57848;51.938;15.520;2022-07-22T10:20:26;27.70;49.79
70421;SHT31;57848;51.938;15.520;2022-07-22T10:23:06;27.74;48.06
70421;SHT31;57848;51.938;15.520;2022-07-22T10:25:52;27.71;47.99
70421;SHT31;57848;51.938;15.520;2022-07-22T10:28:35;27.66;48.43
70421;SHT31;57848;51.938;15.520;2022-07-22T10:31:19;27.50;47.67
70421;SHT31;57848;51.938;15.520;2022-07-22T10:33:48;28.15;46.57
70421;SHT31;57848;51.938;15.520;2022-07-22T10:36:14;28.20;46.50
70421;SHT31;57848;51.938;15.520;2022-07-22T10:39:05;28.47;46.06
70421;SHT31;57848;51.938;15.520;2022-07-22T10:41:40;29.24;44.96
70421;SHT31;57848;51.938;15.520;2022-07-22T10:44:06;29.75;43.54
70421;SHT31;57848;51.938;15.520;2022-07-22T10:46:52;29.06;44.96
70421;SHT31;57848;51.938;15.520;2022-07-22T10:49:23;29.61;43.92
70421;SHT31;57848;51.938;15.520;2022-07-22T10:54:33;30.52;42.45
70421;SHT31;57848;51.938;15.520;2022-07-22T10:57:00;29.94;43.13
70421;SHT31;57848;51.938;15.520;2022-07-22T10:59:25;29.30;43.80
70421;SHT31;57848;51.938;15.520;2022-07-22T11:01:51;29.30;43.84
70421;SHT31;57848;51.938;15.520;2022-07-22T11:06:46;28.82;44.95
70421;SHT31;57848;51.938;15.520;2022-07-22T11:09:13;29.53;43.65
70421;SHT31;57848;51.938;15.520;2022-07-22T11:11:44;30.53;42.42
70421;SHT31;57848;51.938;15.520;2022-07-22T11:16:41;31.00;41.07
70421;SHT31;57848;51.938;15.520;2022-07-22T11:19:07;29.78;42.29
70421;SHT31;57848;51.938;15.520;2022-07-22T11:21:33;28.99;44.00
70421;SHT31;57848;51.938;15.520;2022-07-22T11:24:01;28.47;45.17
70421;SHT31;57848;51.938;15.520;2022-07-22T11:29:04;28.58;45.30
70421;SHT31;57848;51.938;15.520;2022-07-22T11:31:30;29.10;44.07
70421;SHT31;57848;51.938;15.520;2022-07-22T11:34:07;29.44;43.53
70421;SHT31;57848;51.938;15.520;2022-07-22T11:36:34;30.21;41.65
70421;SHT31;57848;51.938;15.520;2022-07-22T11:39:00;30.86;40.10
70421;SHT31;57848;51.938;15.520;2022-07-22T11:41:29;30.74;41.01
70421;SHT31;57848;51.938;15.520;2022-07-22T11:43:54;30.25;41.38
70421;SHT31;57848;51.938;15.520;2022-07-22T11:46:19;30.16;41.43
70421;SHT31;57848;51.938;15.520;2022-07-22T11:48:46;30.90;40.18
70421;SHT31;57848;51.938;15.520;2022-07-22T11:51:12;30.71;40.50
70421;SHT31;57848;51.938;15.520;2022-07-22T11:53:40;30.42;41.25
70421;SHT31;57848;51.938;15.520;2022-07-22T11:56:07;29.57;42.48
70421;SHT31;57848;51.938;15.520;2022-07-22T11:58:37;29.42;42.48
70421;SHT31;57848;51.938;15.520;2022-07-22T12:01:05;29.13;42.58
70421;SHT31;57848;51.938;15.520;2022-07-22T12:03:33;29.78;41.51
70421;SHT31;57848;51.938;15.520;2022-07-22T12:05:59;30.02;40.93
70421;SHT31;57848;51.938;15.520;2022-07-22T12:08:26;29.94;40.79
70421;SHT31;57848;51.938;15.520;2022-07-22T12:10:51;31.27;38.89
70421;SHT31;57848;51.938;15.520;2022-07-22T12:13:17;31.34;38.02
70421;SHT31;57848;51.938;15.520;2022-07-22T12:15:42;32.64;35.89
70421;SHT31;57848;51.938;15.520;2022-07-22T12:18:27;32.02;36.39
70421;SHT31;57848;51.938;15.520;2022-07-22T12:20:54;33.12;34.64
70421;SHT31;57848;51.938;15.520;2022-07-22T12:23:21;31.93;36.39
70421;SHT31;57848;51.938;15.520;2022-07-22T12:25:58;31.52;36.94
70421;SHT31;57848;51.938;15.520;2022-07-22T12:28:24;31.88;37.01
70421;SHT31;57848;51.938;15.520;2022-07-22T12:30:52;32.97;35.28
70421;SHT31;57848;51.938;15.520;2022-07-22T12:33:19;32.48;35.72
70421;SHT31;57848;51.938;15.520;2022-07-22T12:35:58;32.51;35.59
70421;SHT31;57848;51.938;15.520;2022-07-22T12:38:24;33.78;34.04
70421;SHT31;57848;51.938;15.520;2022-07-22T12:40:50;33.05;34.04
70421;SHT31;57848;51.938;15.520;2022-07-22T12:43:15;32.48;35.17
70421;SHT31;57848;51.938;15.520;2022-07-22T12:45:40;33.81;32.98
70421;SHT31;57848;51.938;15.520;2022-07-22T12:48:09;34.91;31.81
70421;SHT31;57848;51.938;15.520;2022-07-22T12:50:40;35.14;31.67
70421;SHT31;57848;51.938;15.520;2022-07-22T12:55:37;34.92;31.67
70421;SHT31;57848;51.938;15.520;2022-07-22T12:58:04;34.47;31.53
70421;SHT31;57848;51.938;15.520;2022-07-22T13:00:39;35.06;31.06
70421;SHT31;57848;51.938;15.520;2022-07-22T13:03:04;35.30;30.21
70421;SHT31;57848;51.938;15.520;2022-07-22T13:05:30;33.42;32.57
70421;SHT31;57848;51.938;15.520;2022-07-22T13:07:56;34.24;32.35
70421;SHT31;57848;51.938;15.520;2022-07-22T13:10:23;35.67;30.40
70421;SHT31;57848;51.938;15.520;2022-07-22T13:12:49;35.26;30.23
70421;SHT31;57848;51.938;15.520;2022-07-22T13:15:15;35.17;30.68
70421;SHT31;57848;51.938;15.520;2022-07-22T13:17:41;35.30;30.17
70421;SHT31;57848;51.938;15.520;2022-07-22T13:20:07;35.32;30.37
70421;SHT31;57848;51.938;15.520;2022-07-22T13:22:34;34.15;32.68
70421;SHT31;57848;51.938;15.520;2022-07-22T13:24:59;34.07;32.26
70421;SHT31;57848;51.938;15.520;2022-07-22T13:27:25;34.21;32.33
70421;SHT31;57848;51.938;15.520;2022-07-22T13:29:50;34.64;30.97
70421;SHT31;57848;51.938;15.520;2022-07-22T13:32:15;35.16;31.05
70421;SHT31;57848;51.938;15.520;2022-07-22T13:34:41;35.37;30.74
70421;SHT31;57848;51.938;15.520;2022-07-22T13:37:06;34.35;32.46
70421;SHT31;57848;51.938;15.520;2022-07-22T13:39:32;34.15;32.69
70421;SHT31;57848;51.938;15.520;2022-07-22T13:41:57;34.89;31.40
70421;SHT31;57848;51.938;15.520;2022-07-22T13:44:22;34.21;31.57
70421;SHT31;57848;51.938;15.520;2022-07-22T13:46:48;33.65;32.43
70421;SHT31;57848;51.938;15.520;2022-07-22T13:49:14;34.59;31.45
70421;SHT31;57848;51.938;15.520;2022-07-22T13:51:40;35.02;30.91
70421;SHT31;57848;51.938;15.520;2022-07-22T13:54:05;35.10;30.26
70421;SHT31;57848;51.938;15.520;2022-07-22T13:56:31;35.23;30.02
70421;SHT31;57848;51.938;15.520;2022-07-22T13:58:58;34.40;30.94
70421;SHT31;57848;51.938;15.520;2022-07-22T14:01:24;33.35;32.68
70421;SHT31;57848;51.938;15.520;2022-07-22T14:03:50;31.90;35.02
70421;SHT31;57848;51.938;15.520;2022-07-22T14:06:15;31.73;35.44
70421;SHT31;57848;51.938;15.520;2022-07-22T14:08:40;31.12;35.92
70421;SHT31;57848;51.938;15.520;2022-07-22T14:11:06;32.68;33.81
70421;SHT31;57848;51.938;15.520;2022-07-22T14:13:31;32.88;33.34
70421;SHT31;57848;51.938;15.520;2022-07-22T14:15:57;32.29;34.02
70421;SHT31;57848;51.938;15.520;2022-07-22T14:18:22;31.55;34.83
70421;SHT31;57848;51.938;15.520;2022-07-22T14:20:47;31.21;35.24
70421;SHT31;57848;51.938;15.520;2022-07-22T14:23:13;31.02;35.22
70421;SHT31;57848;51.938;15.520;2022-07-22T14:25:40;30.73;35.85
70421;SHT31;57848;51.938;15.520;2022-07-22T14:28:06;30.60;36.02
70421;SHT31;57848;51.938;15.520;2022-07-22T14:30:32;30.32;36.45
70421;SHT31;57848;51.938;15.520;2022-07-22T14:32:58;30.26;36.80
70421;SHT31;57848;51.938;15.520;2022-07-22T14:35:24;30.09;37.41
70421;SHT31;57848;51.938;15.520;2022-07-22T14:37:49;30.19;37.11
70421;SHT31;57848;51.938;15.520;2022-07-22T14:40:15;30.11;36.90
70421;SHT31;57848;51.938;15.520;2022-07-22T14:42:40;30.11;37.14
70421;SHT31;57848;51.938;15.520;2022-07-22T14:45:06;30.23;36.98
70421;SHT31;57848;51.938;15.520;2022-07-22T14:47:34;30.05;37.49
70421;SHT31;57848;51.938;15.520;2022-07-22T14:50:00;29.74;38.38
70421;SHT31;57848;51.938;15.520;2022-07-22T14:52:25;29.55;39.32
70421;SHT31;57848;51.938;15.520;2022-07-22T14:54:51;29.61;39.18
70421;SHT31;57848;51.938;15.520;2022-07-22T14:57:16;29.71;39.28
70421;SHT31;57848;51.938;15.520;2022-07-22T14:59:41;29.80;39.12
70421;SHT31;57848;51.938;15.520;2022-07-22T15:02:06;29.86;38.72
70421;SHT31;57848;51.938;15.520;2022-07-22T15:04:32;30.28;38.03
70421;SHT31;57848;51.938;15.520;2022-07-22T15:06:57;31.11;36.94
70421;SHT31;57848;51.938;15.520;2022-07-22T15:09:23;31.01;36.58
70421;SHT31;57848;51.938;15.520;2022-07-22T15:11:48;30.91;36.80
70421;SHT31;57848;51.938;15.520;2022-07-22T15:14:14;30.71;36.92
70421;SHT31;57848;51.938;15.520;2022-07-22T15:16:39;30.46;37.49
70421;SHT31;57848;51.938;15.520;2022-07-22T15:19:05;30.23;37.73
70421;SHT31;57848;51.938;15.520;2022-07-22T15:21:30;30.12;38.25
70421;SHT31;57848;51.938;15.520;2022-07-22T15:23:57;29.89;37.85
70421;SHT31;57848;51.938;15.520;2022-07-22T15:26:22;29.61;38.48
70421;SHT31;57848;51.938;15.520;2022-07-22T15:28:47;29.33;39.35
70421;SHT31;57848;51.938;15.520;2022-07-22T15:31:13;29.29;39.45